createdAt,value
2017-10-11T00:00:59.289Z,11.49
2017-10-11T00:01:59.155Z,11.50
2017-10-11T00:04:00.135Z,11.52
2017-10-11T00:04:52.488Z,11.50
2017-10-11T00:06:53.551Z,11.54
2017-10-11T00:07:53.607Z,11.57
2017-10-11T00:09:49.010Z,11.49
2017-10-11T00:10:40.371Z,11.53
2017-10-11T00:12:43.404Z,11.61
2017-10-11T00:13:34.788Z,11.54
2017-10-11T00:15:38.893Z,11.54
2017-10-11T00:16:36.904Z,11.44
2017-10-11T00:18:30.226Z,11.49
2017-10-11T00:19:22.567Z,11.41
2017-10-11T00:21:23.790Z,11.39
2017-10-11T00:22:16.095Z,11.50
2017-10-11T00:24:18.305Z,11.41
2017-10-11T00:25:10.550Z,11.43
2017-10-11T00:27:11.608Z,11.34
2017-10-11T00:28:03.928Z,11.34
2017-10-11T00:30:06.149Z,11.29
2017-10-11T00:30:57.428Z,11.31
2017-10-11T00:32:59.526Z,11.29
2017-10-11T00:33:59.429Z,11.21
2017-10-11T00:35:52.915Z,11.24
2017-10-11T00:36:44.179Z,11.20
2017-10-11T00:38:47.229Z,11.31
2017-10-11T00:39:38.593Z,11.24
2017-10-11T00:41:41.639Z,11.34
2017-10-11T00:42:33.809Z,11.36
2017-10-11T00:44:34.950Z,11.44
2017-10-11T00:45:27.281Z,11.38
2017-10-11T00:47:29.335Z,11.38
2017-10-11T00:48:20.616Z,11.39
2017-10-11T00:50:21.723Z,11.47
2017-10-11T00:51:22.728Z,11.47
2017-10-11T00:53:08.601Z,11.46
2017-10-11T00:54:17.148Z,11.46
2017-10-11T00:56:01.989Z,11.44
2017-10-11T00:57:09.511Z,11.43
2017-10-11T00:59:02.965Z,11.38
2017-10-11T00:59:55.277Z,11.38
2017-10-11T01:01:56.385Z,11.44
2017-10-11T01:02:48.670Z,11.32
2017-10-11T01:04:50.673Z,11.43
2017-10-11T01:05:42.117Z,11.34
2017-10-11T01:07:44.146Z,11.24
2017-10-11T01:08:36.434Z,11.27
2017-10-11T01:10:37.553Z,11.25
2017-10-11T01:11:29.833Z,11.24
2017-10-11T01:13:31.976Z,11.25
2017-10-11T01:14:31.891Z,11.25
2017-10-11T01:16:24.331Z,11.13
2017-10-11T01:17:16.823Z,11.13
2017-10-11T01:19:18.779Z,10.98
2017-10-11T01:20:20.769Z,11.01
2017-10-11T01:22:12.264Z,11.02
2017-10-11T01:23:13.228Z,11.03
2017-10-11T01:25:06.600Z,10.96
2017-10-11T01:26:07.648Z,10.92
2017-10-11T01:28:01.113Z,10.91
2017-10-11T01:28:53.320Z,10.88
2017-10-11T01:30:56.439Z,10.81
2017-10-11T01:31:47.704Z,10.80
2017-10-11T01:33:48.892Z,10.83
2017-10-11T01:34:41.282Z,10.77
2017-10-11T01:36:42.302Z,10.77
2017-10-11T01:37:34.667Z,10.74
2017-10-11T01:39:36.737Z,10.63
2017-10-11T01:40:36.871Z,10.65
2017-10-11T01:42:31.099Z,10.60
2017-10-11T01:43:23.343Z,10.55
2017-10-11T01:45:16.973Z,10.53
2017-10-11T01:46:16.742Z,10.42
2017-10-11T01:48:17.918Z,10.39
2017-10-11T01:49:10.174Z,10.37
2017-10-11T01:51:11.286Z,10.37
2017-10-11T01:52:12.192Z,10.36
2017-10-11T01:54:04.875Z,10.40
2017-10-11T01:54:57.138Z,10.40
2017-10-11T01:57:00.151Z,10.26
2017-10-11T01:57:51.382Z,10.40
2017-10-11T01:59:55.362Z,10.39
2017-10-11T02:00:54.515Z,10.33
2017-10-11T02:02:46.914Z,10.42
2017-10-11T02:03:48.826Z,10.53
2017-10-11T02:05:41.429Z,10.56
2017-10-11T02:06:42.208Z,10.59
2017-10-11T02:08:35.799Z,10.55
2017-10-11T02:09:27.033Z,10.58
2017-10-11T02:11:28.084Z,10.56
2017-10-11T02:12:28.054Z,10.56
2017-10-11T02:14:21.448Z,10.55
2017-10-11T02:15:21.540Z,10.58
2017-10-11T02:17:16.900Z,10.55
2017-10-11T02:18:08.289Z,10.51
2017-10-11T02:20:10.308Z,10.58
2017-10-11T02:21:09.390Z,10.47
2017-10-11T02:23:03.786Z,10.56
2017-10-11T02:23:55.030Z,10.60
2017-10-11T02:25:56.162Z,10.59
2017-10-11T02:26:57.121Z,10.60
2017-10-11T02:28:41.952Z,10.63
2017-10-11T02:29:41.795Z,10.59
2017-10-11T02:31:43.958Z,10.70
2017-10-11T02:32:36.221Z,10.73
2017-10-11T02:34:38.345Z,10.70
2017-10-11T02:35:30.691Z,10.73
2017-10-11T02:37:31.929Z,10.81
2017-10-11T02:38:24.197Z,10.83
2017-10-11T02:40:25.248Z,10.78
2017-10-11T02:41:17.650Z,10.86
2017-10-11T02:43:19.608Z,10.86
2017-10-11T02:44:20.503Z,10.81
2017-10-11T02:46:06.429Z,10.81
2017-10-11T02:47:06.283Z,10.78
2017-10-11T02:49:01.752Z,10.88
2017-10-11T02:50:09.512Z,10.81
2017-10-11T02:52:03.876Z,10.88
2017-10-11T02:52:56.102Z,10.88
2017-10-11T02:54:59.174Z,10.84
2017-10-11T02:55:59.303Z,10.80
2017-10-11T02:57:53.628Z,10.83
2017-10-11T02:58:44.997Z,10.81
2017-10-11T03:00:47.048Z,10.84
2017-10-11T03:01:38.388Z,10.91
2017-10-11T03:03:39.445Z,10.88
2017-10-11T03:04:39.541Z,10.91
2017-10-11T03:06:34.103Z,10.88
2017-10-11T03:07:26.383Z,10.81
2017-10-11T03:09:27.266Z,10.95
2017-10-11T03:10:27.195Z,10.92
2017-10-11T03:12:21.899Z,10.94
2017-10-11T03:13:14.121Z,10.80
2017-10-11T03:15:15.176Z,10.77
2017-10-11T03:16:07.495Z,10.76
2017-10-11T03:18:09.472Z,10.77
2017-10-11T03:19:09.518Z,10.68
2017-10-11T03:21:03.023Z,10.66
2017-10-11T03:21:55.362Z,10.63
2017-10-11T03:23:58.325Z,10.59
2017-10-11T03:24:49.758Z,10.63
2017-10-11T03:26:51.880Z,10.62
2017-10-11T03:27:44.060Z,10.52
2017-10-11T03:29:45.196Z,10.60
2017-10-11T03:30:37.428Z,10.63
2017-10-11T03:32:39.547Z,10.62
2017-10-11T03:33:30.848Z,10.68
2017-10-11T03:35:24.261Z,10.73
2017-10-11T03:36:24.277Z,10.71
2017-10-11T03:38:27.528Z,10.81
2017-10-11T03:39:18.732Z,10.76
2017-10-11T03:41:20.794Z,10.70
2017-10-11T03:42:21.842Z,10.71
2017-10-11T03:44:15.294Z,10.76
2017-10-11T03:45:15.192Z,10.70
2017-10-11T03:47:09.497Z,10.63
2017-10-11T03:48:00.870Z,10.62
2017-10-11T03:49:54.363Z,10.60
2017-10-11T03:50:54.297Z,10.56
2017-10-11T03:52:56.392Z,10.63
2017-10-11T03:53:47.718Z,10.63
2017-10-11T03:55:48.849Z,10.62
2017-10-11T03:56:41.133Z,10.60
2017-10-11T03:58:42.078Z,10.59
2017-10-11T03:59:34.483Z,10.59
2017-10-11T04:01:35.703Z,10.60
2017-10-11T04:02:27.911Z,10.58
2017-10-11T04:04:29.093Z,10.63
2017-10-11T04:05:30.144Z,10.63
2017-10-11T04:07:23.370Z,10.60
2017-10-11T04:08:15.823Z,10.66
2017-10-11T04:10:17.797Z,10.63
2017-10-11T04:11:09.217Z,10.63
2017-10-11T04:13:10.132Z,10.68
2017-10-11T04:14:02.507Z,10.68
2017-10-11T04:16:03.549Z,10.65
2017-10-11T04:16:55.915Z,10.65
2017-10-11T04:18:59.055Z,10.62
2017-10-11T04:19:51.316Z,10.59
2017-10-11T04:21:54.511Z,10.62
2017-10-11T04:22:52.593Z,10.62
2017-10-11T04:24:47.944Z,10.58
2017-10-11T04:25:46.841Z,10.55
2017-10-11T04:27:40.176Z,10.52
2017-10-11T04:28:32.570Z,10.34
2017-10-11T04:30:33.641Z,10.34
2017-10-11T04:31:26.001Z,10.40
2017-10-11T04:33:26.984Z,10.37
2017-10-11T04:34:19.417Z,10.36
2017-10-11T04:36:12.781Z,10.36
2017-10-11T04:37:12.773Z,10.40
2017-10-11T04:39:13.940Z,10.36
2017-10-11T04:40:06.245Z,10.46
2017-10-11T04:41:59.582Z,10.46
2017-10-11T04:42:59.588Z,10.47
2017-10-11T04:45:00.741Z,10.39
2017-10-11T04:45:53.047Z,10.46
2017-10-11T04:47:54.056Z,10.52
2017-10-11T04:48:46.353Z,10.56
2017-10-11T04:50:49.546Z,10.59
2017-10-11T04:51:40.799Z,10.53
2017-10-11T04:53:44.165Z,10.63
2017-10-11T04:54:36.331Z,10.62
2017-10-11T04:56:32.740Z,10.66
2017-10-11T04:57:32.652Z,10.65
2017-10-11T04:59:34.789Z,10.62
2017-10-11T05:00:27.122Z,10.65
2017-10-11T05:02:29.136Z,10.58
2017-10-11T05:03:20.551Z,10.55
2017-10-11T05:05:13.842Z,10.63
2017-10-11T05:06:13.920Z,10.65
2017-10-11T05:08:07.302Z,10.56
2017-10-11T05:09:07.301Z,10.60
2017-10-11T05:11:08.461Z,10.56
2017-10-11T05:12:00.661Z,10.52
2017-10-11T05:14:01.740Z,10.62
2017-10-11T05:14:54.153Z,10.58
2017-10-11T05:16:55.228Z,10.63
2017-10-11T05:17:47.560Z,10.63
2017-10-11T05:19:48.473Z,10.66
2017-10-11T05:20:40.926Z,10.58
2017-10-11T05:22:41.918Z,10.62
2017-10-11T05:23:34.273Z,10.60
2017-10-11T05:25:27.635Z,10.60
2017-10-11T05:26:27.650Z,10.58
2017-10-11T05:28:21.186Z,10.58
2017-10-11T05:29:21.093Z,10.58
2017-10-11T05:31:14.471Z,10.47
2017-10-11T05:32:14.470Z,10.55
2017-10-11T05:34:15.633Z,10.55
2017-10-11T05:35:07.901Z,10.47
2017-10-11T05:37:09.935Z,10.40
2017-10-11T05:38:01.395Z,10.46
2017-10-11T05:40:02.425Z,10.39
2017-10-11T05:40:54.745Z,10.36
2017-10-11T05:42:55.762Z,10.39
2017-10-11T05:43:55.790Z,10.26
2017-10-11T05:45:49.104Z,10.36
2017-10-11T05:46:41.461Z,10.33
2017-10-11T05:48:43.602Z,10.34
2017-10-11T05:49:35.923Z,10.42
2017-10-11T05:51:37.003Z,10.26
2017-10-11T05:52:37.013Z,10.33
2017-10-11T05:54:22.799Z,10.37
2017-10-11T05:55:22.717Z,10.37
2017-10-11T05:57:16.208Z,10.32
2017-10-11T05:58:16.116Z,10.32
2017-10-11T06:00:18.346Z,10.34
2017-10-11T06:01:10.770Z,10.25
2017-10-11T06:03:04.112Z,10.24
2017-10-11T06:04:04.086Z,10.18
2017-10-11T06:05:57.560Z,10.14
2017-10-11T06:06:57.488Z,10.03
2017-10-11T06:08:59.541Z,10.10
2017-10-11T06:09:50.919Z,10.15
2017-10-11T06:11:51.959Z,9.93
2017-10-11T06:12:44.437Z,9.91
2017-10-11T06:14:45.432Z,9.94
2017-10-11T06:15:37.756Z,9.96
2017-10-11T06:17:38.771Z,9.97
2017-10-11T06:18:31.205Z,9.91
2017-10-11T06:20:32.410Z,9.97
2017-10-11T06:21:24.511Z,9.85
2017-10-11T06:23:18.874Z,9.91
2017-10-11T06:24:18.922Z,9.89
2017-10-11T06:26:20.039Z,9.83
2017-10-11T06:27:12.400Z,9.82
2017-10-11T06:29:14.582Z,9.91
2017-10-11T06:30:09.123Z,9.86
2017-10-11T06:32:06.914Z,9.91
2017-10-11T06:32:59.357Z,9.85
2017-10-11T06:35:00.384Z,9.94
2017-10-11T06:35:52.775Z,10.04
2017-10-11T06:37:54.846Z,10.01
2017-10-11T06:38:46.118Z,10.04
2017-10-11T06:40:39.525Z,10.06
2017-10-11T06:41:39.586Z,10.09
2017-10-11T06:43:41.219Z,10.09
2017-10-11T06:44:32.975Z,10.18
2017-10-11T06:46:33.953Z,10.21
2017-10-11T06:49:27.465Z,10.28
2017-10-11T06:50:20.925Z,10.30
2017-10-11T06:52:20.742Z,10.36
2017-10-11T06:53:13.175Z,10.25
2017-10-11T06:58:08.687Z,10.42
2017-10-11T06:59:01.072Z,10.47
2017-10-11T07:01:01.944Z,10.59
2017-10-11T07:01:54.407Z,10.62
2017-10-11T07:03:55.446Z,10.71
2017-10-11T07:04:47.767Z,10.78
2017-10-11T07:06:55.005Z,10.84
2017-10-11T07:07:46.332Z,10.96
2017-10-11T07:09:39.595Z,11.06
2017-10-11T07:10:39.660Z,11.13
2017-10-11T07:12:33.123Z,11.20
2017-10-11T07:13:33.044Z,11.31
2017-10-11T07:15:26.489Z,11.36
2017-10-11T07:16:26.436Z,11.46
2017-10-11T07:18:19.810Z,11.46
2017-10-11T07:19:19.812Z,11.44
2017-10-11T07:21:14.173Z,11.68
2017-10-11T07:22:14.244Z,11.72
2017-10-11T07:24:08.823Z,11.71
2017-10-11T07:25:08.738Z,11.78
2017-10-11T07:27:02.174Z,11.86
2017-10-11T07:28:02.201Z,11.93
2017-10-11T07:29:55.473Z,11.90
2017-10-11T07:30:55.430Z,11.87
2017-10-11T07:32:48.820Z,12.04
2017-10-11T07:33:48.812Z,12.04
2017-10-11T07:35:42.218Z,12.11
2017-10-11T07:36:42.217Z,12.12
2017-10-11T07:38:35.679Z,12.24
2017-10-11T07:39:35.662Z,12.29
2017-10-11T07:41:29.023Z,12.37
2017-10-11T07:42:29.043Z,12.41
2017-10-11T07:44:22.441Z,12.38
2017-10-11T07:45:22.396Z,12.37
2017-10-11T07:47:16.956Z,12.44
2017-10-11T07:48:16.778Z,12.42
2017-10-11T07:50:10.263Z,12.44
2017-10-11T07:51:10.180Z,12.38
2017-10-11T07:53:04.586Z,12.42
2017-10-11T07:54:04.751Z,12.45
2017-10-11T07:55:59.130Z,12.48
2017-10-11T07:56:59.099Z,12.39
2017-10-11T07:58:52.466Z,12.45
2017-10-11T07:59:52.433Z,12.52
2017-10-11T08:01:47.910Z,12.62
2017-10-11T08:02:47.951Z,12.62
2017-10-11T08:04:41.349Z,12.57
2017-10-11T08:05:41.386Z,12.64
2017-10-11T08:07:34.728Z,12.67
2017-10-11T08:08:34.658Z,12.84
2017-10-11T08:10:29.116Z,12.88
2017-10-11T08:11:29.217Z,12.84
2017-10-11T08:13:23.514Z,12.87
2017-10-11T08:14:23.532Z,12.92
2017-10-11T08:16:26.569Z,12.96
2017-10-11T08:17:17.995Z,12.93
2017-10-11T08:19:19.974Z,12.96
2017-10-11T08:20:12.313Z,12.99
2017-10-11T08:22:05.658Z,13.07
2017-10-11T08:23:05.716Z,13.25
2017-10-11T08:24:59.085Z,13.15
2017-10-11T08:25:59.121Z,13.24
2017-10-11T08:27:53.435Z,13.27
2017-10-11T08:29:03.289Z,13.25
2017-10-11T08:30:46.886Z,13.36
2017-10-11T08:31:46.926Z,13.41
2017-10-11T08:33:40.207Z,13.49
2017-10-11T08:34:40.284Z,13.44
2017-10-11T08:36:34.637Z,13.51
2017-10-11T08:37:34.628Z,13.52
2017-10-11T08:39:28.025Z,13.52
2017-10-11T08:40:28.035Z,13.56
2017-10-11T08:42:21.467Z,13.65
2017-10-11T08:43:21.447Z,13.62
2017-10-11T08:45:14.895Z,13.73
2017-10-11T08:46:14.844Z,13.79
2017-10-11T08:48:08.235Z,13.71
2017-10-11T08:49:08.247Z,13.65
2017-10-11T08:51:02.177Z,13.70
2017-10-11T08:52:10.978Z,13.76
2017-10-11T08:53:55.383Z,13.84
2017-10-11T08:55:03.925Z,13.89
2017-10-11T08:56:58.403Z,13.83
2017-10-11T08:57:58.522Z,13.89
2017-10-11T08:59:44.165Z,13.96
2017-10-11T09:00:51.962Z,13.96
2017-10-11T09:02:38.605Z,14.02
2017-10-11T09:03:38.443Z,13.99
2017-10-11T09:05:40.411Z,14.07
2017-10-11T09:06:40.508Z,14.17
2017-10-11T09:08:36.305Z,14.25
2017-10-11T09:09:35.817Z,14.17
2017-10-11T09:11:32.018Z,14.35
2017-10-11T09:12:33.359Z,14.37
2017-10-11T09:14:17.804Z,14.42
2017-10-11T09:15:16.605Z,14.44
2017-10-11T09:17:20.654Z,14.44
2017-10-11T09:18:12.758Z,14.43
2017-10-11T09:20:16.715Z,14.53
2017-10-11T09:21:08.344Z,14.53
2017-10-11T09:23:09.248Z,14.60
2017-10-11T09:24:01.616Z,14.61
2017-10-11T09:26:03.192Z,14.69
2017-10-11T09:26:54.928Z,14.75
2017-10-11T09:28:56.205Z,14.86
2017-10-11T09:29:48.383Z,14.86
2017-10-11T09:31:52.634Z,15.01
2017-10-11T09:32:51.418Z,14.99
2017-10-11T09:34:44.864Z,15.11
2017-10-11T09:35:36.200Z,15.21
2017-10-11T09:37:29.568Z,15.35
2017-10-11T09:38:29.643Z,15.42
2017-10-11T09:40:30.598Z,15.46
2017-10-11T09:41:22.968Z,15.49
2017-10-11T09:43:25.304Z,15.67
2017-10-11T09:44:25.043Z,15.70
2017-10-11T09:46:18.555Z,15.96
2017-10-11T09:47:10.642Z,15.96
2017-10-11T09:49:04.093Z,16.26
2017-10-11T09:50:04.066Z,16.68
2017-10-11T09:51:57.493Z,18.29
2017-10-11T09:52:57.468Z,19.40
2017-10-11T09:54:50.850Z,20.74
2017-10-11T09:55:50.822Z,20.91
2017-10-11T09:57:45.206Z,22.14
2017-10-11T09:58:45.268Z,22.37
2017-10-11T10:00:39.700Z,23.65
2017-10-11T10:01:38.713Z,23.80
2017-10-11T10:03:32.076Z,24.68
2017-10-11T10:04:32.091Z,24.39
2017-10-11T10:06:26.586Z,24.35
2017-10-11T10:07:26.500Z,24.52
2017-10-11T10:09:20.889Z,24.88
2017-10-11T10:10:20.952Z,25.20
2017-10-11T10:12:14.334Z,25.57
2017-10-11T10:13:14.344Z,25.89
2017-10-11T10:15:17.807Z,25.47
2017-10-11T10:16:15.344Z,25.46
2017-10-11T10:18:02.377Z,25.02
2017-10-11T10:19:02.441Z,24.20
2017-10-11T10:21:04.445Z,25.12
2017-10-11T10:21:56.847Z,25.09
2017-10-11T10:23:51.249Z,26.08
2017-10-11T10:24:59.767Z,25.20
2017-10-11T10:26:45.528Z,25.16
2017-10-11T10:27:45.570Z,25.82
2017-10-11T10:29:39.834Z,26.01
2017-10-11T10:30:39.861Z,25.39
2017-10-11T10:32:33.331Z,26.32
2017-10-11T10:33:33.361Z,26.57
2017-10-11T10:35:26.797Z,26.47
2017-10-11T10:36:26.786Z,26.52
2017-10-11T10:38:20.232Z,26.76
2017-10-11T10:39:20.260Z,26.47
2017-10-11T10:41:13.722Z,27.23
2017-10-11T10:42:13.752Z,26.52
2017-10-11T10:44:07.188Z,27.04
2017-10-11T10:45:07.129Z,27.35
2017-10-11T10:47:01.744Z,27.67
2017-10-11T10:48:01.579Z,27.94
2017-10-11T10:49:55.114Z,28.69
2017-10-11T10:50:55.104Z,27.98
2017-10-11T10:52:49.435Z,28.77
2017-10-11T10:53:49.451Z,27.84
2017-10-11T10:55:43.099Z,27.39
2017-10-11T10:56:43.856Z,26.46
2017-10-11T10:58:36.467Z,26.21
2017-10-11T10:59:44.031Z,27.43
2017-10-11T11:01:29.756Z,27.79
2017-10-11T11:02:29.827Z,27.64
2017-10-11T11:04:23.316Z,27.31
2017-10-11T11:05:23.291Z,26.74
2017-10-11T11:07:16.703Z,27.26
2017-10-11T11:08:16.730Z,27.99
2017-10-11T11:10:10.144Z,27.62
2017-10-11T11:11:10.158Z,27.59
2017-10-11T11:13:03.537Z,27.53
2017-10-11T11:14:03.593Z,25.93
2017-10-11T11:15:56.999Z,24.53
2017-10-11T11:16:57.068Z,23.75
2017-10-11T11:18:50.439Z,23.71
2017-10-11T11:19:50.480Z,23.67
2017-10-11T11:21:44.039Z,24.14
2017-10-11T11:22:43.926Z,24.13
2017-10-11T11:24:37.370Z,24.00
2017-10-11T11:25:37.366Z,24.10
2017-10-11T11:27:30.831Z,24.22
2017-10-11T11:28:30.966Z,24.37
2017-10-11T11:30:24.215Z,24.26
2017-10-11T11:31:24.241Z,24.41
2017-10-11T11:33:17.683Z,23.68
2017-10-11T11:34:17.712Z,23.68
2017-10-11T11:36:11.104Z,23.29
2017-10-11T11:37:11.152Z,23.27
2017-10-11T11:39:04.589Z,23.22
2017-10-11T11:40:04.577Z,23.47
2017-10-11T11:41:58.032Z,23.76
2017-10-11T11:42:58.014Z,22.96
2017-10-11T11:44:51.410Z,22.17
2017-10-11T11:45:51.437Z,22.28
2017-10-11T11:47:44.852Z,22.87
2017-10-11T11:48:44.849Z,22.54
2017-10-11T11:50:38.285Z,23.11
2017-10-11T11:51:38.297Z,22.80
2017-10-11T11:53:31.738Z,22.69
2017-10-11T11:54:32.040Z,22.96
2017-10-11T11:56:26.502Z,23.68
2017-10-11T11:57:25.179Z,23.53
2017-10-11T11:59:18.566Z,23.20
2017-10-11T12:00:18.583Z,23.43
2017-10-11T12:02:11.971Z,23.53
2017-10-11T12:03:12.042Z,23.35
2017-10-11T12:05:05.434Z,22.77
2017-10-11T12:06:05.420Z,22.53
2017-10-11T12:07:58.822Z,22.72
2017-10-11T12:08:58.855Z,22.74
2017-10-11T12:10:52.525Z,22.71
2017-10-11T12:11:52.545Z,22.34
2017-10-11T12:13:45.813Z,22.22
2017-10-11T12:14:46.095Z,22.46
2017-10-11T12:16:40.422Z,22.87
2017-10-11T12:17:40.275Z,22.92
2017-10-11T12:19:33.761Z,22.89
2017-10-11T12:20:42.830Z,23.09
2017-10-11T12:22:29.950Z,22.89
2017-10-11T12:23:30.210Z,22.86
2017-10-11T12:25:23.980Z,23.90
2017-10-11T12:26:31.434Z,24.49
2017-10-11T12:28:18.736Z,24.53
2017-10-11T12:29:28.794Z,24.38
2017-10-11T12:31:12.346Z,23.83
2017-10-11T12:32:19.799Z,23.17
2017-10-11T12:34:05.257Z,23.53
2017-10-11T12:35:16.052Z,23.20
2017-10-11T12:37:00.645Z,23.01
2017-10-11T12:39:57.252Z,21.99
2017-10-11T12:40:55.785Z,22.02
2017-10-11T12:42:50.913Z,21.85
2017-10-11T12:43:57.046Z,21.71
2017-10-11T12:45:51.117Z,20.96
2017-10-11T12:48:07.920Z,20.93
2017-10-11T12:49:07.672Z,20.91
2017-10-11T12:51:02.921Z,21.11
2017-10-11T12:53:56.808Z,20.76
2017-10-11T12:55:04.839Z,20.90
2017-10-11T12:56:51.595Z,20.76
2017-10-11T12:57:59.442Z,20.95
2017-10-11T12:59:56.950Z,20.68
2017-10-11T13:00:46.812Z,20.79
2017-10-11T13:02:39.392Z,20.68
2017-10-11T13:03:39.451Z,20.24
2017-10-11T13:05:33.673Z,20.24
2017-10-11T13:06:33.330Z,20.24
2017-10-11T13:08:32.225Z,20.03
2017-10-11T13:09:32.574Z,19.94
2017-10-11T13:11:25.644Z,20.09
2017-10-11T13:12:25.680Z,20.23
2017-10-11T13:14:20.078Z,20.21
2017-10-11T13:15:20.060Z,20.25
2017-10-11T13:17:13.496Z,20.62
2017-10-11T13:18:13.522Z,20.33
2017-10-11T13:20:07.516Z,20.38
2017-10-11T13:21:06.964Z,20.09
2017-10-11T13:23:01.697Z,19.97
2017-10-11T13:24:02.448Z,19.76
2017-10-11T13:25:55.482Z,19.73
2017-10-11T13:26:55.692Z,19.58
2017-10-11T13:28:48.716Z,19.55
2017-10-11T13:29:50.667Z,19.55
2017-10-11T13:31:43.235Z,19.46
2017-10-11T13:32:43.968Z,19.57
2017-10-11T13:34:37.690Z,19.50
2017-10-11T13:35:37.890Z,19.54
2017-10-11T13:37:44.035Z,19.48
2017-10-11T13:38:52.463Z,19.51
2017-10-11T13:40:38.318Z,19.57
2017-10-11T13:41:38.070Z,19.53
2017-10-11T13:43:46.231Z,19.75
2017-10-11T13:46:19.154Z,19.55
2017-10-11T13:47:10.128Z,19.63
2017-10-11T13:49:04.970Z,19.76
2017-10-11T13:51:17.516Z,19.79
2017-10-11T13:52:17.742Z,19.75
2017-10-11T13:54:11.992Z,19.66
2017-10-11T13:55:21.964Z,19.51
2017-10-11T13:57:05.391Z,19.43
2017-10-11T13:58:05.529Z,19.54
2017-10-11T14:00:08.791Z,19.42
2017-10-11T14:01:01.040Z,19.42
2017-10-11T14:02:53.518Z,19.46
2017-10-11T14:03:53.624Z,19.40
2017-10-11T14:05:55.940Z,19.35
2017-10-11T14:06:47.046Z,19.38
2017-10-11T14:08:41.341Z,19.28
2017-10-11T14:09:49.212Z,19.24
2017-10-11T14:11:35.019Z,19.31
2017-10-11T14:12:35.685Z,19.28
2017-10-11T14:14:37.656Z,19.23
2017-10-11T14:15:29.577Z,19.28
2017-10-11T14:17:23.241Z,19.28
2017-10-11T14:18:23.227Z,19.17
2017-10-11T14:20:17.764Z,19.01
2017-10-11T14:21:17.799Z,19.01
2017-10-11T14:23:12.391Z,18.99
2017-10-11T14:24:12.193Z,19.01
2017-10-11T14:26:06.812Z,18.97
2017-10-11T14:27:06.658Z,18.98
2017-10-11T14:29:00.133Z,18.95
2017-10-11T14:30:00.034Z,18.95
2017-10-11T14:31:54.555Z,18.83
2017-10-11T14:32:54.537Z,18.86
2017-10-11T14:34:47.980Z,18.77
2017-10-11T14:35:47.946Z,18.84
2017-10-11T14:37:42.443Z,18.79
2017-10-11T14:38:42.290Z,18.87
2017-10-11T14:40:35.733Z,18.84
2017-10-11T14:41:43.525Z,18.87
2017-10-11T14:43:29.137Z,18.79
2017-10-11T14:44:29.177Z,18.84
2017-10-11T14:46:22.535Z,18.80
2017-10-11T14:47:22.573Z,18.73
2017-10-11T14:49:16.995Z,18.72
2017-10-11T14:50:16.966Z,18.70
2017-10-11T14:52:11.399Z,18.72
2017-10-11T14:53:11.416Z,18.62
2017-10-11T14:55:04.842Z,18.57
2017-10-11T14:56:04.829Z,18.57
2017-10-11T14:57:59.360Z,18.61
2017-10-11T14:58:59.248Z,18.54
2017-10-11T15:00:52.674Z,18.57
2017-10-11T15:01:52.695Z,18.62
2017-10-11T15:03:47.028Z,18.43
2017-10-11T15:04:47.056Z,18.43
2017-10-11T15:06:40.459Z,18.34
2017-10-11T15:07:40.466Z,18.37
2017-10-11T15:09:33.870Z,18.25
2017-10-11T15:10:33.931Z,18.28
2017-10-11T15:12:27.371Z,18.21
2017-10-11T15:13:27.356Z,18.18
2017-10-11T15:15:20.704Z,18.17
2017-10-11T15:16:20.714Z,18.21
2017-10-11T15:18:15.107Z,18.12
2017-10-11T15:19:15.101Z,18.18
2017-10-11T15:21:09.531Z,18.04
2017-10-11T15:22:09.518Z,18.02
2017-10-11T15:24:04.074Z,18.04
2017-10-11T15:25:03.922Z,18.04
2017-10-11T15:26:58.506Z,17.99
2017-10-11T15:27:57.412Z,18.03
2017-10-11T15:29:51.336Z,18.07
2017-10-11T15:30:50.834Z,18.09
2017-10-11T15:32:44.259Z,18.03
2017-10-11T15:33:44.931Z,17.94
2017-10-11T15:35:37.752Z,17.84
2017-10-11T15:36:37.682Z,17.82
2017-10-11T15:38:31.073Z,17.88
2017-10-11T15:39:31.693Z,17.87
2017-10-11T15:41:25.082Z,17.85
2017-10-11T15:42:25.667Z,17.76
2017-10-11T15:44:18.513Z,17.73
2017-10-11T15:45:18.481Z,17.82
2017-10-11T15:47:15.129Z,17.84
2017-10-11T15:48:12.949Z,17.82
2017-10-11T15:50:08.204Z,17.73
2017-10-11T15:51:08.384Z,17.70
2017-10-11T15:53:07.561Z,17.73
2017-10-11T15:54:01.926Z,17.67
2017-10-11T15:55:56.077Z,17.64
2017-10-11T15:56:55.828Z,17.55
2017-10-11T15:58:49.695Z,17.40
2017-10-11T15:59:50.027Z,17.30
2017-10-11T16:01:42.719Z,17.18
2017-10-11T16:02:42.749Z,17.13
2017-10-11T16:04:36.150Z,17.18
2017-10-11T16:05:36.179Z,17.22
2017-10-11T16:07:29.566Z,17.18
2017-10-11T16:08:29.580Z,17.15
2017-10-11T16:10:23.773Z,17.22
2017-10-11T16:11:23.351Z,17.17
2017-10-11T16:13:17.377Z,17.13
2017-10-11T16:14:17.372Z,17.04
2017-10-11T16:16:10.784Z,16.98
2017-10-11T16:17:10.787Z,16.98
2017-10-11T16:19:04.213Z,16.77
2017-10-11T16:20:04.262Z,16.62
2017-10-11T16:21:58.604Z,16.33
2017-10-11T16:22:58.647Z,16.15
2017-10-11T16:24:53.076Z,16.03
2017-10-11T16:25:53.089Z,15.85
2017-10-11T16:27:47.500Z,15.75
2017-10-11T16:28:47.521Z,15.63
2017-10-11T16:30:40.944Z,15.41
2017-10-11T16:31:40.879Z,15.38
2017-10-11T16:33:34.327Z,15.15
2017-10-11T16:34:34.339Z,15.06
2017-10-11T16:36:27.712Z,14.99
2017-10-11T16:37:27.765Z,14.86
2017-10-11T16:39:21.183Z,14.78
2017-10-11T16:40:21.243Z,14.72
2017-10-11T16:42:14.661Z,14.72
2017-10-11T16:43:15.159Z,14.65
2017-10-11T16:45:09.485Z,14.62
2017-10-11T16:46:08.857Z,14.64
2017-10-11T16:48:03.297Z,14.52
2017-10-11T16:49:03.290Z,14.54
2017-10-11T16:50:56.561Z,14.43
2017-10-11T16:51:56.512Z,14.44
2017-10-11T16:53:49.948Z,14.20
2017-10-11T16:54:50.422Z,14.34
2017-10-11T16:56:43.593Z,14.17
2017-10-11T16:57:44.017Z,14.14
2017-10-11T16:59:49.946Z,14.09
2017-10-11T17:00:52.790Z,13.99
2017-10-11T17:02:43.936Z,13.99
2017-10-11T17:03:45.231Z,13.80
2017-10-11T17:05:36.514Z,13.65
2017-10-11T17:06:36.722Z,13.69
2017-10-11T17:08:29.912Z,13.49
2017-10-11T17:09:30.039Z,13.55
2017-10-11T17:11:23.529Z,13.41
2017-10-11T17:12:23.372Z,13.24
2017-10-11T17:14:16.789Z,13.37
2017-10-11T17:15:16.759Z,13.29
2017-10-11T17:17:10.154Z,13.18
2017-10-11T17:18:10.248Z,13.15
2017-10-11T17:20:04.893Z,13.18
2017-10-11T17:21:04.470Z,13.24
2017-10-11T17:22:59.632Z,13.24
2017-10-11T17:23:58.846Z,13.12
2017-10-11T17:25:52.225Z,13.03
2017-10-11T17:26:52.266Z,13.00
2017-10-11T17:28:45.674Z,13.04
2017-10-11T17:29:45.666Z,12.99
2017-10-11T17:31:39.049Z,12.95
2017-10-11T17:32:39.064Z,12.84
2017-10-11T17:34:33.509Z,12.60
2017-10-11T17:35:33.473Z,12.59
2017-10-11T17:37:26.887Z,12.51
2017-10-11T17:38:26.888Z,12.45
2017-10-11T17:40:20.281Z,12.46
2017-10-11T17:41:20.288Z,12.44
2017-10-11T17:43:13.717Z,12.46
2017-10-11T17:44:13.706Z,12.44
2017-10-11T17:46:07.084Z,12.39
2017-10-11T17:47:07.080Z,12.39
2017-10-11T17:49:00.515Z,12.38
2017-10-11T17:50:00.518Z,12.42
2017-10-11T17:51:53.875Z,12.41
2017-10-11T17:52:53.877Z,12.34
2017-10-11T17:54:47.294Z,12.38
2017-10-11T17:55:47.319Z,12.37
2017-10-11T17:57:40.720Z,12.38
2017-10-11T17:58:40.721Z,12.37
2017-10-11T18:00:34.151Z,12.34
2017-10-11T18:01:34.178Z,12.31
2017-10-11T18:03:28.580Z,12.23
2017-10-11T18:04:28.613Z,12.13
2017-10-11T18:06:21.943Z,12.16
2017-10-11T18:07:21.968Z,12.09
2017-10-11T18:09:15.309Z,11.97
2017-10-11T18:10:15.339Z,12.06
2017-10-11T18:12:08.794Z,11.86
2017-10-11T18:13:08.773Z,11.78
2017-10-11T18:15:02.187Z,11.77
2017-10-11T18:16:02.185Z,11.77
2017-10-11T18:17:55.628Z,11.77
2017-10-11T18:18:55.555Z,11.71
2017-10-11T18:20:49.000Z,11.67
2017-10-11T18:21:49.016Z,11.67
2017-10-11T18:23:43.393Z,11.54
2017-10-11T18:24:43.437Z,11.56
2017-10-11T18:26:37.851Z,11.50
2017-10-11T18:27:37.790Z,11.50
2017-10-11T18:29:32.289Z,11.44
2017-10-11T18:30:32.419Z,11.43
2017-10-11T18:32:25.675Z,11.47
2017-10-11T18:33:25.680Z,11.38
2017-10-11T18:35:19.068Z,11.46
2017-10-11T18:36:19.038Z,11.41
2017-10-11T18:38:12.430Z,11.36
2017-10-11T18:39:12.481Z,11.32
2017-10-11T18:41:06.833Z,11.31
2017-10-11T18:42:06.856Z,11.28
2017-10-11T18:44:00.317Z,11.36
2017-10-11T18:45:00.325Z,11.27
2017-10-11T18:46:54.828Z,11.34
2017-10-11T18:47:54.653Z,11.35
2017-10-11T18:49:48.089Z,11.38
2017-10-11T18:50:48.083Z,11.36